Buenos Aires, Argentina

7:58 AM ART on July 31, 2016 (GMT -0300)
Sevilla | | Change Station

Elev 26 ft 34.58 °S, 58.40 °W | Updated 7 minutes ago

Mist
Mist
54.0 °F
Feels Like 54.0 °F
N
1.2
Wind Variable Wind from SE
Gusts 5.6 mph

Today
High -- | Low -- °F
--% Chance of Precip.
Yesterday
High -- | Low -- °F
Precip. -- in
Pressure 29.92 in
Visibility 1.9 miles
Clouds
Dew Point 53 °F
Humidity 97%
Rainfall 0.02 in
Snow Depth Not available.
7:47 AM 6:12 PM
Waning Crescent, 7% visible
SPECI SADF 311031Z 00000KT 3000 MIFGBR NSC 13/12 Q1013
Pressure 29.92 in
Visibility 1.9 miles
Clouds
Dew Point 53 °F
Humidity 97%
Rainfall 0.02 in
Snow Depth Not available.
7:47 AM 6:12 PM
Waning Crescent, 7% visible
SPECI SADF 311031Z 00000KT 3000 MIFGBR NSC 13/12 Q1013

10-Day Weather Forecast

No radar image for this location.
×

Almanac

Astronomy

Jul. 31, 2016 Rise Set
Actual Time
Civil Twilight
Nautical Twilight
Astronomical Twilight
Moon
Length of Visible Light
Length of Day
Tomorrow will be .
, % of the Moon is Illuminated

Today's Extremes

Country Highs Country Lows

Community

WunderPhotos

Upload Photos

1,928,785 photos uploaded!

WunderBlog® & News

Nearby

Air Quality

  Air Quality AQ Index Pollutant
Not available.

Snow Depth

Station Depth Elevation

Earthquake Activity

City Distance Mag. Time & Date
Minimum magnitude displayed is 2.5.

Coastal Water Temperatures

Place Temperature

Stations

Nearby Weather Stations

Station Location Temp. Windchill Dew Point Humidity Wind Precip. Elev Updated Type